createdAt,value
2022-10-18T00:02:06.649Z,97166.44
2022-10-18T00:04:33.633Z,97169.41
2022-10-18T00:07:00.238Z,97162.28
2022-10-18T00:09:27.747Z,97170.47
2022-10-18T00:11:55.534Z,97168.34
2022-10-18T00:14:22.395Z,97171.88
2022-10-18T00:16:49.095Z,97168.13
2022-10-18T00:19:15.716Z,97165.13
2022-10-18T00:24:11.305Z,97152.88
2022-10-18T00:26:37.928Z,97156.84
2022-10-18T00:29:05.930Z,97148.59
2022-10-18T00:31:35.413Z,97152.03
2022-10-18T00:34:13.663Z,97144.03
2022-10-18T00:36:40.284Z,97148.00
2022-10-18T00:39:08.390Z,97144.41
2022-10-18T00:41:37.989Z,97135.66
2022-10-18T00:44:27.334Z,97139.16
2022-10-18T00:47:02.326Z,97141.06
2022-10-18T00:49:35.381Z,97130.84
2022-10-18T00:52:26.136Z,97142.25
2022-10-18T00:54:54.261Z,97141.38
2022-10-18T00:57:21.149Z,97139.97
2022-10-18T00:59:48.210Z,97130.41
2022-10-18T01:02:18.293Z,97127.06
2022-10-18T01:04:46.755Z,97127.84
2022-10-18T01:07:25.974Z,97129.69
2022-10-18T01:10:01.618Z,97118.69
2022-10-18T01:12:49.340Z,97117.94
2022-10-18T01:15:20.482Z,97119.03
2022-10-18T01:18:19.041Z,97118.97
2022-10-18T01:20:51.663Z,97115.13
2022-10-18T01:23:31.592Z,97114.31
2022-10-18T01:26:42.782Z,97120.13
2022-10-18T01:29:30.786Z,97128.09
2022-10-18T01:32:12.887Z,97127.06
2022-10-18T01:34:43.218Z,97134.13
2022-10-18T01:37:14.293Z,97138.44
2022-10-18T01:39:44.271Z,97131.22
2022-10-18T01:42:14.024Z,97128.78
2022-10-18T01:44:42.866Z,97129.16
2022-10-18T01:47:11.641Z,97119.41
2022-10-18T01:49:38.203Z,97122.75
2022-10-18T01:52:05.224Z,97129.78
2022-10-18T01:54:36.431Z,97131.16
2022-10-18T01:57:09.791Z,97129.03
2022-10-18T01:59:45.319Z,97125.97
2022-10-18T02:02:42.082Z,97123.94
2022-10-18T02:05:24.528Z,97124.59
2022-10-18T02:08:12.503Z,97129.47
2022-10-18T02:10:50.672Z,97125.59
2022-10-18T02:13:21.347Z,97120.38
2022-10-18T02:15:51.476Z,97124.53
2022-10-18T02:18:42.502Z,97133.53
2022-10-18T02:21:13.575Z,97133.47
2022-10-18T02:23:40.159Z,97128.28
2022-10-18T02:26:07.154Z,97137.94
2022-10-18T02:28:34.027Z,97138.44
2022-10-18T02:31:15.916Z,97139.16
2022-10-18T02:33:56.780Z,97144.75
2022-10-18T02:36:32.103Z,97146.38
2022-10-18T02:39:04.646Z,97147.91
2022-10-18T02:41:32.220Z,97139.72
2022-10-18T02:43:58.855Z,97151.50
2022-10-18T02:48:57.167Z,97158.09
2022-10-18T02:51:23.769Z,97154.47
2022-10-18T02:53:50.359Z,97154.25
2022-10-18T02:56:16.952Z,97156.41
2022-10-18T02:58:43.542Z,97151.72
2022-10-18T03:01:10.209Z,97161.28
2022-10-18T03:03:36.903Z,97153.28
2022-10-18T03:06:03.586Z,97158.50
2022-10-18T03:08:30.236Z,97156.88
2022-10-18T03:10:56.868Z,97152.53
2022-10-18T03:13:23.576Z,97154.59
2022-10-18T03:15:50.171Z,97152.91
2022-10-18T03:18:16.783Z,97151.41
2022-10-18T03:20:43.811Z,97158.97
2022-10-18T03:23:10.499Z,97160.78
2022-10-18T03:25:37.091Z,97166.47
2022-10-18T03:28:03.975Z,97172.19
2022-10-18T03:30:30.630Z,97158.16
2022-10-18T03:32:57.254Z,97162.22
2022-10-18T03:35:23.854Z,97160.84
2022-10-18T03:37:50.994Z,97165.09
2022-10-18T03:40:18.170Z,97164.78
2022-10-18T03:42:44.898Z,97159.28
2022-10-18T03:45:11.626Z,97164.66
2022-10-18T03:47:38.256Z,97171.63
2022-10-18T03:50:05.387Z,97162.47
2022-10-18T03:52:32.182Z,97172.19
2022-10-18T03:54:59.011Z,97169.06
2022-10-18T03:57:25.675Z,97165.28
2022-10-18T03:59:52.259Z,97170.84
2022-10-18T04:02:19.047Z,97164.66
2022-10-18T04:04:45.678Z,97169.50
2022-10-18T04:07:12.346Z,97167.38
2022-10-18T04:09:38.930Z,97165.19
2022-10-18T04:12:05.695Z,97158.22
2022-10-18T04:14:32.274Z,97160.91
2022-10-18T04:16:58.880Z,97167.44
2022-10-18T04:19:25.447Z,97162.06
2022-10-18T04:21:52.046Z,97159.91
2022-10-18T04:24:18.629Z,97159.53
2022-10-18T04:26:45.482Z,97158.78
2022-10-18T04:29:12.351Z,97160.13
2022-10-18T04:31:39.002Z,97153.13
2022-10-18T04:34:05.563Z,97149.09
2022-10-18T04:36:32.218Z,97149.34
2022-10-18T04:38:58.778Z,97149.31
2022-10-18T04:41:25.485Z,97151.94
2022-10-18T04:43:52.056Z,97146.84
2022-10-18T04:46:18.756Z,97148.13
2022-10-18T04:48:45.327Z,97148.13
2022-10-18T04:51:11.982Z,97146.00
2022-10-18T04:53:38.716Z,97143.16
2022-10-18T04:56:05.708Z,97142.91
2022-10-18T04:58:32.810Z,97142.53
2022-10-18T05:00:59.494Z,97139.00
2022-10-18T05:03:26.093Z,97141.97
2022-10-18T05:06:08.032Z,97139.19
2022-10-18T05:08:35.987Z,97133.22
2022-10-18T05:11:03.985Z,97134.28
2022-10-18T05:13:31.071Z,97139.66
2022-10-18T05:15:59.529Z,97131.53
2022-10-18T05:18:26.352Z,97130.13
2022-10-18T05:20:52.955Z,97133.72
2022-10-18T05:23:19.563Z,97129.97
2022-10-18T05:25:46.280Z,97131.44
2022-10-18T05:28:34.694Z,97128.50
2022-10-18T05:31:04.378Z,97125.94
2022-10-18T05:33:31.012Z,97126.22
2022-10-18T05:35:57.938Z,97130.09
2022-10-18T05:38:24.992Z,97131.66
2022-10-18T05:40:52.123Z,97130.63
2022-10-18T05:43:18.795Z,97130.69
2022-10-18T05:45:51.537Z,97130.63
2022-10-18T05:48:18.654Z,97124.41
2022-10-18T05:50:45.811Z,97124.88
2022-10-18T05:53:24.680Z,97118.75
2022-10-18T05:56:02.741Z,97120.31
2022-10-18T05:58:29.390Z,97121.91
2022-10-18T06:01:01.511Z,97127.00
2022-10-18T06:03:30.340Z,97125.34
2022-10-18T06:06:05.347Z,97126.13
2022-10-18T06:08:32.688Z,97131.25
2022-10-18T06:10:59.709Z,97122.84
2022-10-18T06:13:26.381Z,97120.63
2022-10-18T06:15:57.511Z,97122.09
2022-10-18T06:18:24.151Z,97117.75
2022-10-18T06:20:56.970Z,97119.25
2022-10-18T06:23:23.555Z,97118.22
2022-10-18T06:25:50.157Z,97127.91
2022-10-18T06:28:17.278Z,97129.72
2022-10-18T06:30:44.570Z,97129.38
2022-10-18T06:33:12.116Z,97134.47
2022-10-18T06:35:38.683Z,97131.91
2022-10-18T06:38:06.321Z,97128.78
2022-10-18T06:40:37.956Z,97131.66
2022-10-18T06:43:20.007Z,97141.69
2022-10-18T06:45:47.046Z,97143.59
2022-10-18T06:48:13.642Z,97135.81
2022-10-18T06:50:40.314Z,97142.16
2022-10-18T06:53:09.036Z,97141.47
2022-10-18T06:55:36.252Z,97140.56
2022-10-18T06:58:03.016Z,97141.19
2022-10-18T07:00:29.757Z,97149.59
2022-10-18T07:02:58.310Z,97146.38
2022-10-18T07:05:25.126Z,97158.28
2022-10-18T07:07:54.336Z,97155.09
2022-10-18T07:10:23.916Z,97157.50
2022-10-18T07:12:53.445Z,97159.44
2022-10-18T07:15:24.188Z,97168.72
2022-10-18T07:17:50.938Z,97176.16
2022-10-18T07:20:17.789Z,97167.19
2022-10-18T07:22:44.374Z,97165.50
2022-10-18T07:25:11.161Z,97167.88
2022-10-18T07:27:39.917Z,97163.56
2022-10-18T07:30:08.340Z,97156.44
2022-10-18T07:32:35.019Z,97159.59
2022-10-18T07:35:02.541Z,97170.50
2022-10-18T07:37:30.274Z,97175.78
2022-10-18T07:39:57.036Z,97184.94
2022-10-18T07:42:23.691Z,97183.16
2022-10-18T07:44:50.653Z,97175.44
2022-10-18T07:47:17.331Z,97171.22
2022-10-18T07:49:44.052Z,97164.28
2022-10-18T07:52:11.255Z,97161.34
2022-10-18T07:54:37.875Z,97165.13
2022-10-18T07:57:05.108Z,97165.50
2022-10-18T07:59:31.677Z,97164.84
2022-10-18T08:01:58.302Z,97178.97
2022-10-18T08:04:24.950Z,97170.81
2022-10-18T08:06:51.862Z,97168.19
2022-10-18T08:09:18.448Z,97169.91
2022-10-18T08:11:45.022Z,97177.63
2022-10-18T08:14:11.643Z,97176.78
2022-10-18T08:16:38.223Z,97170.31
2022-10-18T08:19:04.850Z,97177.38
2022-10-18T08:21:31.928Z,97172.47
2022-10-18T08:23:58.539Z,97172.13
2022-10-18T08:26:25.166Z,97165.88
2022-10-18T08:29:10.386Z,97156.91
2022-10-18T08:31:38.671Z,97161.56
2022-10-18T08:34:05.249Z,97162.19
2022-10-18T08:36:31.972Z,97161.25
2022-10-18T08:38:58.765Z,97168.50
2022-10-18T08:41:37.321Z,97162.00
2022-10-18T08:44:30.873Z,97168.41
2022-10-18T08:47:11.568Z,97159.81
2022-10-18T08:49:47.609Z,97164.88
2022-10-18T08:52:28.406Z,97161.75
2022-10-18T08:55:04.230Z,97155.97
2022-10-18T08:57:32.836Z,97152.63
2022-10-18T08:59:59.868Z,97156.25
2022-10-18T09:02:44.975Z,97154.56
2022-10-18T09:05:29.563Z,97161.97
2022-10-18T09:08:32.947Z,97151.88
2022-10-18T09:11:36.648Z,97154.75
2022-10-18T09:14:10.899Z,97164.34
2022-10-18T09:16:37.443Z,97162.00
2022-10-18T09:19:25.323Z,97163.59
2022-10-18T09:21:55.340Z,97146.19
2022-10-18T09:24:40.214Z,97146.28
2022-10-18T09:27:18.598Z,97147.38
2022-10-18T09:30:15.540Z,97159.91
2022-10-18T09:32:54.803Z,97157.88
2022-10-18T09:35:29.828Z,97155.47
2022-10-18T09:38:04.298Z,97142.69
2022-10-18T09:40:35.431Z,97142.50
2022-10-18T09:43:08.358Z,97141.78
2022-10-18T09:45:39.118Z,97138.44
2022-10-18T09:48:29.026Z,97141.81
2022-10-18T09:51:04.479Z,97140.56
2022-10-18T09:53:47.567Z,97138.03
2022-10-18T09:56:20.803Z,97133.63
2022-10-18T09:58:51.446Z,97129.47
2022-10-18T10:01:30.783Z,97131.41
2022-10-18T10:03:57.747Z,97128.63
2022-10-18T10:06:38.718Z,97124.44
2022-10-18T10:09:14.108Z,97123.91
2022-10-18T10:11:47.183Z,97125.53
2022-10-18T10:14:28.826Z,97129.31
2022-10-18T10:17:04.070Z,97124.88
2022-10-18T10:19:41.084Z,97119.84
2022-10-18T10:22:12.114Z,97127.34
2022-10-18T10:24:41.491Z,97124.75
2022-10-18T10:27:21.173Z,97118.59
2022-10-18T10:29:47.778Z,97123.38
2022-10-18T10:32:17.243Z,97111.13
2022-10-18T10:34:45.041Z,97108.50
2022-10-18T10:37:36.619Z,97102.06
2022-10-18T10:40:28.401Z,97105.53
2022-10-18T10:43:13.187Z,97103.75
2022-10-18T10:46:10.071Z,97107.06
2022-10-18T10:48:47.223Z,97114.06
2022-10-18T10:51:16.166Z,97109.44
2022-10-18T10:53:57.348Z,97107.97
2022-10-18T10:56:30.945Z,97106.56
2022-10-18T10:59:08.902Z,97104.13
2022-10-18T11:01:36.567Z,97100.84
2022-10-18T11:04:24.920Z,97099.72
2022-10-18T11:07:05.086Z,97081.47
2022-10-18T11:09:53.277Z,97074.66
2022-10-18T11:12:25.838Z,97077.56
2022-10-18T11:15:32.665Z,97070.19
2022-10-18T11:18:23.163Z,97070.91
2022-10-18T11:20:57.098Z,97069.41
2022-10-18T11:23:30.934Z,97058.00
2022-10-18T11:26:12.861Z,97054.06
2022-10-18T11:28:51.599Z,97046.53
2022-10-18T11:31:35.612Z,97040.22
2022-10-18T11:34:10.339Z,97047.34
2022-10-18T11:37:27.135Z,97038.66
2022-10-18T11:40:26.850Z,97033.91
2022-10-18T11:43:11.610Z,97029.56
2022-10-18T11:45:50.459Z,97025.34
2022-10-18T11:48:35.467Z,97027.25
2022-10-18T11:51:02.082Z,97026.34
2022-10-18T11:53:48.369Z,97031.13
2022-10-18T11:56:42.650Z,97015.09
2022-10-18T11:59:32.251Z,97009.97
2022-10-18T12:02:27.738Z,97014.78
2022-10-18T12:07:59.111Z,97017.25
2022-10-18T12:10:44.105Z,97006.91
2022-10-18T12:13:35.336Z,97009.25
2022-10-18T12:16:07.166Z,97010.78
2022-10-18T12:18:36.148Z,96993.53
2022-10-18T12:21:05.578Z,96998.66
2022-10-18T12:23:38.162Z,96992.03
2022-10-18T12:26:07.908Z,97002.59
2022-10-18T12:28:43.771Z,96996.16
2022-10-18T12:31:40.042Z,96994.75
2022-10-18T12:34:21.935Z,96991.25
2022-10-18T12:37:08.756Z,96990.47
2022-10-18T12:39:50.435Z,96987.31
2022-10-18T12:42:31.968Z,96989.69
2022-10-18T12:45:13.889Z,96983.38
2022-10-18T12:47:40.789Z,96981.00
2022-10-18T12:50:26.924Z,96974.69
2022-10-18T12:53:19.212Z,96971.44
2022-10-18T12:55:51.725Z,96964.97
2022-10-18T12:58:28.531Z,96966.00
2022-10-18T13:00:57.423Z,96963.59
2022-10-18T13:03:26.966Z,96957.41
2022-10-18T13:06:00.708Z,96948.59
2022-10-18T13:08:28.460Z,96953.44
2022-10-18T13:11:10.231Z,96960.78
2022-10-18T13:13:43.869Z,96954.69
2022-10-18T13:16:42.959Z,96961.78
2022-10-18T13:19:18.475Z,96951.75
2022-10-18T13:22:14.175Z,96957.28
2022-10-18T13:25:01.903Z,96953.34
2022-10-18T13:27:36.774Z,96957.72
2022-10-18T13:30:18.562Z,96952.19
2022-10-18T13:33:03.853Z,96958.44
2022-10-18T13:35:58.465Z,96960.91
2022-10-18T13:38:49.763Z,96969.28
2022-10-18T13:41:19.726Z,96972.88
2022-10-18T13:43:56.150Z,96967.78
2022-10-18T13:46:45.735Z,96969.31
2022-10-18T13:49:39.812Z,96973.78
2022-10-18T13:52:25.067Z,96979.09
2022-10-18T13:55:14.730Z,96982.41
2022-10-18T13:58:07.906Z,96990.34
2022-10-18T14:00:56.272Z,96989.97
2022-10-18T14:03:56.776Z,97000.69
2022-10-18T14:06:29.061Z,96995.22
2022-10-18T14:09:09.398Z,96992.75
2022-10-18T14:12:14.164Z,96992.56
2022-10-18T14:14:55.808Z,96997.22
2022-10-18T14:17:51.795Z,96994.06
2022-10-18T14:20:32.741Z,96998.81
2022-10-18T14:23:08.071Z,96994.69
2022-10-18T14:25:36.817Z,96993.75
2022-10-18T14:28:16.845Z,96989.31
2022-10-18T14:31:07.274Z,96999.25
2022-10-18T14:33:38.008Z,96994.22
2022-10-18T14:36:15.821Z,96987.47
2022-10-18T14:39:06.829Z,96990.72
2022-10-18T14:41:47.398Z,96992.63
2022-10-18T14:44:18.580Z,96990.69
2022-10-18T14:46:52.023Z,96993.69
2022-10-18T14:49:20.548Z,97001.25
2022-10-18T14:51:56.318Z,96991.56
2022-10-18T14:54:31.574Z,96993.22
2022-10-18T14:57:00.541Z,96984.91
2022-10-18T14:59:29.648Z,96984.56
2022-10-18T15:02:00.024Z,96982.81
2022-10-18T15:04:33.201Z,96984.75
2022-10-18T15:07:05.917Z,96983.25
2022-10-18T15:09:35.435Z,96976.16
2022-10-18T15:12:07.106Z,96975.66
2022-10-18T15:14:34.840Z,96974.28
2022-10-18T15:17:26.068Z,96975.78
2022-10-18T15:19:59.365Z,96979.34
2022-10-18T15:22:33.318Z,96975.88
2022-10-18T15:25:11.338Z,96972.59
2022-10-18T15:27:39.621Z,96977.22
2022-10-18T15:30:17.763Z,96972.06
2022-10-18T15:32:51.102Z,96972.53
2022-10-18T15:35:26.124Z,96966.28
2022-10-18T15:37:54.092Z,96968.81
2022-10-18T15:40:23.488Z,96972.47
2022-10-18T15:42:52.298Z,96970.56
2022-10-18T15:45:24.680Z,96959.16
2022-10-18T15:48:10.763Z,96961.91
2022-10-18T15:50:41.060Z,96970.56
2022-10-18T15:53:23.007Z,96962.91
2022-10-18T15:56:31.345Z,96965.31
2022-10-18T15:58:59.921Z,96961.41
2022-10-18T16:01:43.299Z,96957.31
2022-10-18T16:04:30.728Z,96954.22
2022-10-18T16:06:58.195Z,96957.94
2022-10-18T16:09:27.513Z,96958.66
2022-10-18T16:11:57.274Z,96960.44
2022-10-18T16:14:25.632Z,96967.09
2022-10-18T16:16:55.830Z,96976.63
2022-10-18T16:19:22.962Z,96972.59
2022-10-18T16:21:51.140Z,96968.75
2022-10-18T16:24:18.836Z,96975.88
2022-10-18T16:26:46.054Z,96972.13
2022-10-18T16:29:21.617Z,96972.13
2022-10-18T16:31:48.215Z,96977.44
2022-10-18T16:34:14.925Z,96973.31
2022-10-18T16:36:41.907Z,96973.94
2022-10-18T16:39:15.262Z,96976.28
2022-10-18T16:41:41.870Z,96983.66
2022-10-18T16:44:08.545Z,96985.47
2022-10-18T16:46:36.220Z,96983.56
2022-10-18T16:49:03.499Z,96991.22
2022-10-18T16:51:30.193Z,96993.75
2022-10-18T16:53:57.100Z,96990.13
2022-10-18T16:56:32.426Z,96997.81
2022-10-18T16:58:59.835Z,96997.31
2022-10-18T17:01:27.372Z,97009.88
2022-10-18T17:03:55.310Z,97005.81
2022-10-18T17:06:25.855Z,97019.94
2022-10-18T17:08:53.907Z,97018.19
2022-10-18T17:11:21.816Z,97011.81
2022-10-18T17:13:48.488Z,97016.00
2022-10-18T17:16:23.242Z,97016.53
2022-10-18T17:18:49.978Z,97016.09
2022-10-18T17:21:16.788Z,97006.53
2022-10-18T17:23:43.364Z,97011.59
2022-10-18T17:26:28.200Z,97016.00
2022-10-18T17:28:58.382Z,97016.88
2022-10-18T17:31:25.348Z,97015.31
2022-10-18T17:33:54.679Z,97025.75
2022-10-18T17:36:21.850Z,97023.88
2022-10-18T17:38:52.068Z,97025.06
2022-10-18T17:41:18.671Z,97025.69
2022-10-18T17:43:45.393Z,97022.53
2022-10-18T17:46:13.249Z,97027.44
2022-10-18T17:48:41.021Z,97022.88
2022-10-18T17:51:09.483Z,97023.31
2022-10-18T17:53:36.434Z,97030.16
2022-10-18T17:56:04.616Z,97032.47
2022-10-18T17:58:32.261Z,97026.19
2022-10-18T18:01:12.824Z,97028.22
2022-10-18T18:03:39.889Z,97030.66
2022-10-18T18:06:13.556Z,97030.19
2022-10-18T18:08:40.149Z,97038.75
2022-10-18T18:11:07.156Z,97033.50
2022-10-18T18:13:33.803Z,97025.41
2022-10-18T18:16:14.129Z,97025.75
2022-10-18T18:18:41.141Z,97029.44
2022-10-18T18:21:07.862Z,97026.91
2022-10-18T18:23:34.477Z,97033.97
2022-10-18T18:26:01.114Z,97032.59
2022-10-18T18:28:27.859Z,97027.66
2022-10-18T18:30:54.476Z,97029.13
2022-10-18T18:33:21.187Z,97019.47
2022-10-18T18:35:58.182Z,97025.81
2022-10-18T18:38:25.602Z,97027.22
2022-10-18T18:41:10.743Z,97018.09
2022-10-18T18:43:38.730Z,97013.78
2022-10-18T18:46:05.840Z,97019.38
2022-10-18T18:48:34.216Z,97010.94
2022-10-18T18:51:01.932Z,97015.28
2022-10-18T18:53:29.752Z,97023.69
2022-10-18T18:56:08.060Z,97027.44
2022-10-18T18:58:36.551Z,97029.03
2022-10-18T19:01:17.966Z,97037.25
2022-10-18T19:03:47.444Z,97028.75
2022-10-18T19:06:19.690Z,97036.25
2022-10-18T19:08:46.891Z,97027.16
2022-10-18T19:11:16.743Z,97029.84
2022-10-18T19:13:43.547Z,97033.00
2022-10-18T19:16:26.605Z,97031.78
2022-10-18T19:18:58.929Z,97034.72
2022-10-18T19:21:28.963Z,97033.78
2022-10-18T19:23:56.582Z,97043.59
2022-10-18T19:26:45.393Z,97050.13
2022-10-18T19:29:14.314Z,97056.78
2022-10-18T19:31:41.253Z,97062.50
2022-10-18T19:34:10.574Z,97076.34
2022-10-18T19:36:38.141Z,97068.66
2022-10-18T19:39:07.121Z,97066.63
2022-10-18T19:41:33.768Z,97074.06
2022-10-18T19:44:00.563Z,97078.19
2022-10-18T19:46:27.290Z,97066.81
2022-10-18T19:48:54.323Z,97083.47
2022-10-18T19:51:25.521Z,97086.09
2022-10-18T19:53:55.918Z,97078.63
2022-10-18T19:56:24.429Z,97083.97
2022-10-18T19:58:51.271Z,97082.19
2022-10-18T20:01:18.647Z,97076.31
2022-10-18T20:03:46.015Z,97080.31
2022-10-18T20:06:13.196Z,97078.72
2022-10-18T20:08:39.996Z,97081.44
2022-10-18T20:11:12.740Z,97079.88
2022-10-18T20:13:40.106Z,97084.94
2022-10-18T20:16:09.024Z,97092.16
2022-10-18T20:18:36.607Z,97092.91
2022-10-18T20:21:07.594Z,97100.31
2022-10-18T20:23:39.243Z,97102.34
2022-10-18T20:26:07.148Z,97091.88
2022-10-18T20:28:34.607Z,97100.78
2022-10-18T20:31:07.447Z,97101.28
2022-10-18T20:33:35.296Z,97104.72
2022-10-18T20:36:04.088Z,97103.31
2022-10-18T20:38:32.009Z,97103.59
2022-10-18T20:41:03.455Z,97109.47
2022-10-18T20:43:30.127Z,97113.91
2022-10-18T20:45:58.323Z,97112.34
2022-10-18T20:48:26.148Z,97115.53
2022-10-18T20:50:52.835Z,97116.50
2022-10-18T20:53:20.099Z,97124.13
2022-10-18T20:55:46.692Z,97118.88
2022-10-18T20:58:13.305Z,97115.81
2022-10-18T21:00:39.924Z,97100.94
2022-10-18T21:03:06.581Z,97114.50
2022-10-18T21:05:33.401Z,97111.88
2022-10-18T21:07:59.967Z,97118.69
2022-10-18T21:10:26.605Z,97124.59
2022-10-18T21:12:53.534Z,97117.00
2022-10-18T21:15:20.150Z,97117.88
2022-10-18T21:17:51.483Z,97120.50
2022-10-18T21:20:18.978Z,97123.25
2022-10-18T21:22:45.645Z,97120.00
2022-10-18T21:25:12.397Z,97127.09
2022-10-18T21:27:39.551Z,97129.72
2022-10-18T21:30:06.529Z,97122.41
2022-10-18T21:32:33.289Z,97120.47
2022-10-18T21:35:00.139Z,97122.00
2022-10-18T21:37:26.747Z,97119.50
2022-10-18T21:39:53.334Z,97118.00
2022-10-18T21:42:19.928Z,97124.28
2022-10-18T21:44:46.664Z,97115.19
2022-10-18T21:47:13.282Z,97118.13
2022-10-18T21:49:39.842Z,97116.16
2022-10-18T21:52:06.650Z,97121.69
2022-10-18T21:54:33.268Z,97118.78
2022-10-18T21:56:59.843Z,97113.97
2022-10-18T21:59:26.474Z,97118.88
2022-10-18T22:01:53.081Z,97115.44
2022-10-18T22:04:24.730Z,97110.91
2022-10-18T22:06:51.977Z,97116.31
2022-10-18T22:09:19.974Z,97116.22
2022-10-18T22:11:50.405Z,97123.34
2022-10-18T22:14:17.147Z,97120.31
2022-10-18T22:16:43.742Z,97119.50
2022-10-18T22:19:10.626Z,97114.50
2022-10-18T22:21:37.228Z,97112.94
2022-10-18T22:24:06.888Z,97108.91
2022-10-18T22:26:40.251Z,97105.06
2022-10-18T22:29:10.604Z,97104.50
2022-10-18T22:31:39.663Z,97102.22
2022-10-18T22:34:10.462Z,97106.88
2022-10-18T22:36:37.231Z,97105.75
2022-10-18T22:39:08.204Z,97112.47
2022-10-18T22:41:35.333Z,97111.81
2022-10-18T22:44:03.833Z,97112.09
2022-10-18T22:46:31.588Z,97098.53
2022-10-18T22:48:58.233Z,97095.78
2022-10-18T22:51:24.940Z,97102.00
2022-10-18T22:53:51.741Z,97099.31
2022-10-18T22:56:21.065Z,97100.03
2022-10-18T22:58:50.775Z,97101.38
2022-10-18T23:01:20.797Z,97103.38
2022-10-18T23:03:55.515Z,97097.56
2022-10-18T23:06:25.327Z,97095.47
2022-10-18T23:08:53.536Z,97096.16
2022-10-18T23:11:20.751Z,97096.41
2022-10-18T23:13:47.905Z,97091.47
2022-10-18T23:16:14.879Z,97087.44
2022-10-18T23:18:42.887Z,97088.88
2022-10-18T23:21:11.956Z,97085.84
2022-10-18T23:23:40.906Z,97083.56
2022-10-18T23:26:10.811Z,97076.69
2022-10-18T23:28:40.183Z,97079.09
2022-10-18T23:31:13.756Z,97080.00
2022-10-18T23:33:41.252Z,97077.78
2022-10-18T23:36:08.958Z,97079.34
2022-10-18T23:38:36.864Z,97078.56
2022-10-18T23:41:08.231Z,97082.59
2022-10-18T23:43:35.436Z,97069.28
2022-10-18T23:46:02.641Z,97077.09
2022-10-18T23:48:29.295Z,97077.31
2022-10-18T23:50:56.060Z,97073.09
2022-10-18T23:53:23.251Z,97066.06
2022-10-18T23:55:54.399Z,97071.84
2022-10-18T23:58:20.985Z,97070.72
